Time;durP1;ratioP1;P1;durP2;ratioP2;P2;SDS_P1;SDS_P2;PMS_P1;PMS_P2;Temp;Humidity;BMP_temperature;BMP_pressure;BME280_temperature;BME280_humidity;BME280_pressure;Samples;Min_cycle;Max_cycle;Signal;HPM_P1;HPM_P2
2022/04/28 00:00:40;;;;;;;6.63;6.03;;;;;;;8.30;100.00;100084.72;5012777;28;20373;-76
2022/04/28 00:03:09;;;;;;;6.07;5.47;;;;;;;8.31;100.00;100086.34;5012974;28;20226;-76
2022/04/28 00:05:36;;;;;;;6.03;5.53;;;;;;;8.28;100.00;100084.84;4995831;28;20194;-75
2022/04/28 00:08:03;;;;;;;6.60;5.70;;;;;;;8.26;100.00;100088.72;4995327;28;20230;-76
2022/04/28 00:10:30;;;;;;;6.77;6.07;;;;;;;8.21;100.00;100083.97;5012585;28;20219;-77
2022/04/28 00:12:57;;;;;;;7.60;5.60;;;;;;;8.04;100.00;100087.09;5014438;28;20221;-75
2022/04/28 00:15:24;;;;;;;7.07;5.60;;;;;;;7.97;100.00;100082.56;5016334;28;20233;-76
2022/04/28 00:17:50;;;;;;;6.10;5.50;;;;;;;7.97;100.00;100087.91;5015936;28;20210;-75
2022/04/28 00:20:17;;;;;;;7.40;6.17;;;;;;;7.92;100.00;100081.47;4999016;28;20226;-76
2022/04/28 00:22:46;;;;;;;6.17;5.57;;;;;;;7.86;100.00;100077.72;5016526;28;20295;-76
2022/04/28 00:25:13;;;;;;;7.00;5.80;;;;;;;7.91;100.00;100077.16;5016104;28;20175;-76
2022/04/28 00:27:41;;;;;;;6.87;6.27;;;;;;;7.91;100.00;100077.97;4998667;28;20657;-77
2022/04/28 00:30:08;;;;;;;6.40;5.70;;;;;;;7.78;100.00;100085.03;4981861;28;20202;-75
2022/04/28 00:32:35;;;;;;;6.97;5.83;;;;;;;7.65;100.00;100079.56;5015687;28;20257;-75
2022/04/28 00:35:02;;;;;;;7.17;5.57;;;;;;;7.62;100.00;100075.44;5015334;28;20603;-76
2022/04/28 00:37:29;;;;;;;6.20;5.60;;;;;;;7.55;100.00;100079.06;5015448;28;20245;-75
2022/04/28 00:39:56;;;;;;;6.90;5.47;;;;;;;7.49;100.00;100080.63;4982004;28;20285;-75
2022/04/28 00:42:23;;;;;;;6.93;6.03;;;;;;;7.53;100.00;100087.22;4998340;28;20209;-76
2022/04/28 00:44:51;;;;;;;6.30;5.70;;;;;;;7.47;100.00;100086.13;4981854;28;20571;-76
2022/04/28 00:47:18;;;;;;;6.17;5.57;;;;;;;7.40;100.00;100087.91;5014861;28;20279;-76
2022/04/28 00:52:33;;;;;;;6.30;5.70;;;;;;;7.24;100.00;100081.97;4997999;28;20290;-77
2022/04/28 00:55:00;;;;;;;5.90;5.30;;;;;;;7.19;100.00;100084.38;4981669;28;20222;-76
2022/04/28 00:57:28;;;;;;;7.17;5.60;;;;;;;7.15;100.00;100083.91;5015481;28;20229;-76
2022/04/28 00:59:55;;;;;;;5.90;5.40;;;;;;;7.14;100.00;100084.94;4997416;28;20629;-75
2022/04/28 01:02:24;;;;;;;6.83;6.00;;;;;;;7.20;100.00;100092.19;4997951;28;20183;-76
2022/04/28 01:04:50;;;;;;;6.83;5.53;;;;;;;7.07;100.00;100098.19;5014366;28;20486;-75
2022/04/28 01:07:17;;;;;;;6.57;5.63;;;;;;;7.00;100.00;100093.75;4997679;28;20242;-77
2022/04/28 01:09:45;;;;;;;6.27;5.50;;;;;;;6.91;100.00;100090.38;4997254;28;20229;-76
2022/04/28 01:12:16;;;;;;;5.70;5.10;;;;;;;6.91;100.00;100094.88;5013572;28;20197;-76
2022/04/28 01:14:50;;;;;;;6.90;5.50;;;;;;;6.83;100.00;100098.47;4982071;28;20565;-75
2022/04/28 01:17:20;;;;;;;6.33;5.47;;;;;;;6.78;100.00;100095.53;4981590;28;20547;-75
2022/04/28 01:20:02;;;;;;;6.07;5.53;;;;;;;6.69;100.00;100091.31;5014652;28;20183;-75
2022/04/28 01:22:32;;;;;;;6.17;5.53;;;;;;;6.62;100.00;100095.72;4997336;28;20202;-75
2022/04/28 01:25:07;;;;;;;6.20;5.60;;;;;;;6.57;100.00;100088.28;4996794;28;20229;-75
2022/04/28 01:27:35;;;;;;;7.23;5.73;;;;;;;6.52;100.00;100087.16;4997093;28;20274;-74
2022/04/28 01:30:14;;;;;;;6.70;5.63;;;;;;;6.51;100.00;100091.66;4996689;28;20235;-75
2022/04/28 01:32:48;;;;;;;6.10;5.50;;;;;;;6.46;100.00;100093.22;4996517;28;20193;-76
2022/04/28 01:35:16;;;;;;;6.17;5.57;;;;;;;6.42;100.00;100079.44;4996633;28;20499;-75
2022/04/28 01:37:43;;;;;;;6.50;5.90;;;;;;;6.34;100.00;100086.69;4996805;28;20221;-75
2022/04/28 01:40:13;;;;;;;6.60;6.00;;;;;;;6.30;100.00;100091.53;4981270;28;20237;-76
2022/04/28 01:42:42;;;;;;;6.30;5.70;;;;;;;6.23;100.00;100087.13;4980980;28;20191;-75
2022/04/28 01:45:10;;;;;;;7.53;5.60;;;;;;;6.16;100.00;100089.66;4996802;28;20197;-76
2022/04/28 01:47:54;;;;;;;6.13;5.53;;;;;;;6.12;100.00;100085.72;4996488;28;20488;-76
2022/04/28 01:50:39;;;;;;;6.30;5.57;;;;;;;6.12;100.00;100088.38;4969641;28;20538;-76
2022/04/28 01:56:19;;;;;;;6.40;5.80;;;;;;;5.94;100.00;100091.34;4996336;28;20187;-75
2022/04/28 01:59:05;;;;;;;6.57;5.73;;;;;;;5.86;100.00;100085.25;4999768;28;20855;-77
2022/04/28 02:02:07;;;;;;;6.40;5.80;;;;;;;5.81;100.00;100090.28;4941607;29;20504;-76
2022/04/28 02:04:35;;;;;;;6.90;5.77;;;;;;;5.79;100.00;100093.09;5001351;28;20199;-76
2022/04/28 02:07:02;;;;;;;6.43;5.80;;;;;;;5.72;100.00;100094.81;4997502;28;20546;-76
2022/04/28 02:09:29;;;;;;;6.63;6.00;;;;;;;5.70;100.00;100089.66;5014412;28;20203;-77
2022/04/28 02:11:57;;;;;;;6.13;5.53;;;;;;;5.72;100.00;100092.16;4996153;28;20312;-75
2022/04/28 02:14:40;;;;;;;6.60;5.93;;;;;;;5.71;100.00;100090.50;4995734;28;20209;-76
2022/04/28 02:17:27;;;;;;;6.50;5.90;;;;;;;5.67;100.00;100098.00;4999319;28;20588;-75
2022/04/28 02:20:06;;;;;;;6.23;5.63;;;;;;;5.65;100.00;100097.34;5014665;28;20513;-76
2022/04/28 02:22:33;;;;;;;7.10;6.30;;;;;;;5.64;100.00;100094.88;4996951;28;20626;-75
2022/04/28 02:25:00;;;;;;;6.83;6.13;;;;;;;5.56;100.00;100089.59;4993491;28;20227;-76
2022/04/28 02:27:27;;;;;;;7.13;6.43;;;;;;;5.59;100.00;100092.75;4993838;28;20737;-77
2022/04/28 02:29:54;;;;;;;7.63;6.20;;;;;;;5.56;100.00;100095.75;4993944;28;20231;-75
2022/04/28 02:32:21;;;;;;;7.03;6.33;;;;;;;5.50;100.00;100095.66;4977333;28;20192;-76
2022/04/28 02:34:48;;;;;;;7.57;6.50;;;;;;;5.50;100.00;100087.66;4993661;28;20270;-75
2022/04/28 02:37:15;;;;;;;7.77;6.30;;;;;;;5.53;100.00;100095.28;4977890;28;20587;-78
2022/04/28 02:39:42;;;;;;;7.47;6.77;;;;;;;5.49;100.00;100099.28;4976709;28;20188;-76
2022/04/28 02:42:14;;;;;;;6.60;5.90;;;;;;;5.43;100.00;100095.50;4993904;28;20198;-76
2022/04/28 02:44:42;;;;;;;6.73;6.10;;;;;;;5.38;100.00;100094.38;4977400;28;20546;-77
2022/04/28 02:47:11;;;;;;;7.47;6.57;;;;;;;5.36;100.00;100096.38;4992650;28;20192;-75
2022/04/28 02:49:39;;;;;;;7.93;7.20;;;;;;;5.30;100.00;100092.59;4992636;28;20227;-76
2022/04/28 02:52:08;;;;;;;7.83;6.30;;;;;;;5.31;100.00;100095.09;4992999;28;20196;-76
2022/04/28 02:54:36;;;;;;;7.27;6.50;;;;;;;5.25;100.00;100092.28;4993058;28;20602;-75
2022/04/28 02:57:04;;;;;;;7.13;6.43;;;;;;;5.23;100.00;100091.63;4992756;28;20193;-78
2022/04/28 02:59:31;;;;;;;6.87;6.20;;;;;;;5.22;100.00;100092.66;4992870;28;20188;-76
2022/04/28 03:01:58;;;;;;;7.37;6.50;;;;;;;5.25;100.00;100095.78;4992217;28;20194;-76
2022/04/28 03:04:25;;;;;;;7.43;6.53;;;;;;;5.16;100.00;100096.00;4992598;28;20232;-76
2022/04/28 03:12:26;;;;;;;7.93;6.93;;;;;;;5.05;100.00;100105.16;4992775;28;20195;-75
2022/04/28 03:15:13;;;;;;;7.30;6.60;;;;;;;4.93;100.00;100097.75;4991823;28;20202;-76
2022/04/28 03:17:39;;;;;;;7.57;6.70;;;;;;;4.91;100.00;100107.69;4992045;28;20187;-78
2022/04/28 03:20:07;;;;;;;7.80;6.53;;;;;;;4.92;100.00;100104.88;4991723;28;20191;-75
2022/04/28 03:22:36;;;;;;;7.53;6.77;;;;;;;4.83;100.00;100096.13;4991655;28;20227;-77
2022/04/28 03:25:03;;;;;;;8.40;7.10;;;;;;;4.78;100.00;100103.78;4991380;28;20642;-75
2022/04/28 03:27:33;;;;;;;9.63;7.10;;;;;;;4.75;100.00;100111.25;4975397;28;20188;-75
2022/04/28 03:30:00;;;;;;;7.23;6.63;;;;;;;4.69;100.00;100110.09;4975698;28;20209;-75
2022/04/28 03:32:32;;;;;;;8.33;6.83;;;;;;;4.69;100.00;100111.91;4991068;28;20214;-76
2022/04/28 03:35:04;;;;;;;8.27;7.43;;;;;;;4.71;100.00;100115.25;4991135;28;20583;-75
2022/04/28 03:37:31;;;;;;;7.60;6.90;;;;;;;4.72;100.00;100117.72;4991188;28;20579;-75
2022/04/28 03:39:58;;;;;;;7.90;6.60;;;;;;;4.68;100.00;100116.41;5007119;28;20238;-75
2022/04/28 03:42:25;;;;;;;7.20;6.50;;;;;;;4.65;100.00;100115.91;4991420;28;20569;-75
2022/04/28 03:44:53;;;;;;;7.17;6.47;;;;;;;4.65;100.00;100116.75;4990898;28;20485;-76
2022/04/28 03:47:21;;;;;;;8.20;6.87;;;;;;;4.69;100.00;100123.38;4991139;28;20188;-75
2022/04/28 03:49:48;;;;;;;7.90;7.10;;;;;;;4.72;100.00;100120.38;4990760;28;20211;-76
2022/04/28 03:52:15;;;;;;;8.10;7.30;;;;;;;4.85;100.00;100125.97;4975081;28;20191;-75
2022/04/28 03:54:42;;;;;;;8.33;7.10;;;;;;;4.93;100.00;100121.66;4974914;28;20331;-74
2022/04/28 03:57:09;;;;;;;7.37;6.70;;;;;;;5.04;100.00;100137.22;4991053;28;20220;-75
2022/04/28 03:59:36;;;;;;;7.90;7.10;;;;;;;5.06;100.00;100129.88;4990918;28;20191;-75
2022/04/28 04:02:42;;;;;;;8.03;6.57;;;;;;;5.10;100.00;100132.03;4991297;28;20195;-75
2022/04/28 04:05:10;;;;;;;7.77;6.97;;;;;;;5.16;100.00;100135.84;4991025;28;20274;-75
2022/04/28 04:07:38;;;;;;;8.03;7.23;;;;;;;5.23;100.00;100129.63;4974776;28;20219;-76
2022/04/28 04:10:17;;;;;;;7.90;7.10;;;;;;;5.32;100.00;100125.94;4992916;28;20495;-75
2022/04/28 04:12:46;;;;;;;8.63;6.93;;;;;;;5.42;100.00;100122.25;4990799;28;20238;-75
2022/04/28 04:15:13;;;;;;;8.93;6.90;;;;;;;5.47;100.00;100138.50;4992006;28;20190;-75
2022/04/28 04:17:58;;;;;;;8.53;7.10;;;;;;;5.61;100.00;100135.09;4977448;28;20192;-75
2022/04/28 04:20:32;;;;;;;7.87;7.07;;;;;;;5.72;100.00;100142.69;4992180;28;20187;-75
2022/04/28 04:22:59;;;;;;;7.67;6.93;;;;;;;5.80;100.00;100139.97;4993069;28;20553;-76
2022/04/28 04:25:26;;;;;;;7.63;6.93;;;;;;;5.94;100.00;100143.72;4994447;28;20234;-75
2022/04/28 04:27:59;;;;;;;7.57;6.80;;;;;;;6.08;100.00;100135.78;5011312;28;20175;-75
2022/04/28 04:33:53;;;;;;;7.50;6.80;;;;;;;6.45;100.00;100148.28;4994184;28;20215;-76
2022/04/28 04:36:20;;;;;;;7.27;6.57;;;;;;;6.64;100.00;100154.94;4993948;28;20195;-77
2022/04/28 04:38:48;;;;;;;7.17;6.47;;;;;;;6.88;100.00;100148.53;4993944;28;20199;-77
2022/04/28 04:41:16;;;;;;;7.50;6.80;;;;;;;7.06;100.00;100149.81;4994871;28;20196;-76
2022/04/28 04:43:43;;;;;;;7.30;6.60;;;;;;;7.27;100.00;100157.06;4994570;28;20583;-75
2022/04/28 04:46:11;;;;;;;7.17;6.47;;;;;;;7.45;100.00;100162.84;4994554;28;20195;-76
2022/04/28 04:48:57;;;;;;;7.70;6.67;;;;;;;7.63;100.00;100158.94;5011949;28;20426;-76
2022/04/28 04:51:33;;;;;;;9.17;6.53;;;;;;;7.80;100.00;100163.84;4994656;28;20620;-75
2022/04/28 04:54:20;;;;;;;7.00;6.23;;;;;;;8.02;100.00;100170.03;4997505;28;20179;-76
2022/04/28 04:56:49;;;;;;;7.60;6.90;;;;;;;8.19;100.00;100166.09;4995376;28;20245;-76
2022/04/28 04:59:16;;;;;;;8.13;6.67;;;;;;;8.37;100.00;100176.34;4997219;28;20187;-78
2022/04/28 05:01:43;;;;;;;7.20;6.50;;;;;;;8.53;100.00;100168.06;4981152;28;20199;-76
2022/04/28 05:04:29;;;;;;;7.67;6.57;;;;;;;8.78;100.00;100176.47;5000824;28;20201;-76
2022/04/28 05:07:14;;;;;;;9.63;7.70;;;;;;;8.97;100.00;100180.28;5000776;28;20194;-76
2022/04/28 05:09:42;;;;;;;28.20;21.73;;;;;;;9.12;100.00;100179.16;4997222;28;20221;-76
2022/04/28 05:12:09;;;;;;;12.47;11.17;;;;;;;9.28;100.00;100183.38;4981315;28;20199;-75
2022/04/28 05:14:51;;;;;;;9.50;8.60;;;;;;;9.50;100.00;100184.09;4999546;28;20179;-76
2022/04/28 05:17:19;;;;;;;8.00;7.20;;;;;;;9.64;100.00;100180.44;4997993;28;20211;-75
2022/04/28 05:19:58;;;;;;;8.67;6.80;;;;;;;9.84;100.00;100183.19;4982692;28;20277;-76
2022/04/28 05:22:44;;;;;;;9.13;8.33;;;;;;;9.88;100.00;100193.31;5015412;28;20205;-76
2022/04/28 05:25:29;;;;;;;8.80;8.00;;;;;;;10.15;100.00;100188.81;5000364;28;20321;-76
2022/04/28 05:28:15;;;;;;;7.80;6.73;;;;;;;10.37;100.00;100193.00;5001003;28;20230;-76
2022/04/28 05:31:00;;;;;;;7.87;6.80;;;;;;;10.56;100.00;100191.38;5000515;28;20221;-77
2022/04/28 05:33:43;;;;;;;7.60;6.80;;;;;;;10.72;100.00;100193.66;4984079;28;20191;-76
2022/04/28 05:36:21;;;;;;;7.67;6.97;;;;;;;10.92;100.00;100193.63;5014383;28;20198;-75
2022/04/28 05:38:48;;;;;;;7.20;6.53;;;;;;;11.08;100.00;100198.56;4998488;28;20590;-75
2022/04/28 05:41:17;;;;;;;7.20;6.50;;;;;;;11.22;100.00;100199.34;5016233;28;20177;-75
2022/04/28 05:46:29;;;;;;;7.27;6.47;;;;;;;11.53;100.00;100202.13;5001718;28;20422;-76
2022/04/28 05:48:55;;;;;;;7.00;6.30;;;;;;;11.65;100.00;100194.28;4997780;28;20187;-77
2022/04/28 05:51:22;;;;;;;8.57;6.63;;;;;;;11.86;100.00;100197.50;4981379;28;20281;-77
2022/04/28 05:53:49;;;;;;;7.27;6.57;;;;;;;12.00;100.00;100198.25;4996980;28;20202;-75
2022/04/28 05:56:16;;;;;;;7.07;6.23;;;;;;;12.16;100.00;100188.88;5014898;28;20183;-75
2022/04/28 05:58:52;;;;;;;8.07;6.10;;;;;;;12.27;100.00;100197.03;4996923;28;20201;-76
2022/04/28 06:01:38;;;;;;;8.50;6.70;;;;;;;12.27;100.00;100202.41;5000527;28;20186;-76
2022/04/28 06:04:07;;;;;;;7.37;6.70;;;;;;;12.45;100.00;100201.69;4997510;28;20497;-76
2022/04/28 06:06:39;;;;;;;7.10;6.40;;;;;;;12.60;100.00;100204.03;4998465;28;20167;-76
2022/04/28 06:09:15;;;;;;;8.20;7.40;;;;;;;12.74;100.00;100208.28;4996731;28;20194;-76
2022/04/28 06:11:43;;;;;;;7.97;6.20;;;;;;;12.90;100.00;100206.91;4981144;28;20278;-76
2022/04/28 06:14:10;;;;;;;7.47;6.70;;;;;;;12.96;100.00;100209.56;5014144;28;20191;-77
2022/04/28 06:16:46;;;;;;;6.67;6.07;;;;;;;13.06;100.00;100215.25;4998815;28;20575;-76
2022/04/28 06:19:23;;;;;;;6.03;5.40;;;;;;;13.25;100.00;100212.63;4997201;28;20601;-77
2022/04/28 06:22:05;;;;;;;6.90;6.27;;;;;;;13.29;100.00;100220.03;5014817;28;20183;-75
2022/04/28 06:24:42;;;;;;;6.70;6.00;;;;;;;13.30;100.00;100215.47;4996855;28;20226;-75
2022/04/28 06:27:10;;;;;;;6.80;5.87;;;;;;;13.37;100.00;100217.03;5014381;28;20341;-76
2022/04/28 06:29:38;;;;;;;7.00;6.30;;;;;;;13.40;98.94;100235.41;4996650;28;20218;-76
2022/04/28 06:32:08;;;;;;;6.90;5.80;;;;;;;13.44;94.84;100227.72;4980999;28;20199;-76
2022/04/28 06:34:45;;;;;;;7.43;6.57;;;;;;;13.46;97.99;100226.47;5014085;28;20182;-75
2022/04/28 06:37:16;;;;;;;7.30;6.23;;;;;;;13.56;96.80;100221.38;4996775;28;20225;-75
2022/04/28 06:39:49;;;;;;;7.70;6.90;;;;;;;13.55;98.01;100225.13;4982246;28;20636;-79
2022/04/28 06:42:15;;;;;;;6.80;6.20;;;;;;;13.55;99.68;100225.13;5014279;28;20410;-76
2022/04/28 06:45:12;;;;;;;7.23;6.53;;;;;;;13.67;100.00;100227.88;4977615;28;20289;-77
2022/04/28 06:48:18;;;;;;;7.57;6.20;;;;;;;13.86;96.96;100223.28;4983344;28;20182;-76
2022/04/28 06:51:05;;;;;;;7.73;6.33;;;;;;;13.93;90.73;100226.72;4970233;28;20222;-76
2022/04/28 06:53:50;;;;;;;6.27;5.67;;;;;;;13.95;87.51;100227.34;5014442;28;20241;-75
2022/04/28 06:56:21;;;;;;;6.87;6.27;;;;;;;13.81;89.98;100220.47;4982593;28;20203;-76
2022/04/28 06:59:08;;;;;;;8.17;6.13;;;;;;;13.81;95.53;100223.97;4997765;28;20285;-77
2022/04/28 07:01:40;;;;;;;7.87;6.70;;;;;;;13.98;94.53;100229.56;5011049;28;20187;-75
2022/04/28 07:04:10;;;;;;;6.47;5.87;;;;;;;14.12;92.46;100228.34;4960136;28;20580;-75
2022/04/28 07:06:37;;;;;;;7.10;5.90;;;;;;;14.15;86.30;100222.50;4959829;28;20645;-77
2022/04/28 07:09:04;;;;;;;6.80;5.70;;;;;;;14.15;89.43;100230.56;4975558;28;20217;-76
2022/04/28 07:11:32;;;;;;;6.77;6.13;;;;;;;14.26;89.64;100232.50;4978205;28;20210;-76
2022/04/28 07:14:18;;;;;;;6.53;5.77;;;;;;;14.22;91.63;100234.00;4994958;28;20187;-76
2022/04/28 07:17:13;;;;;;;7.40;6.27;;;;;;;14.25;88.21;100228.16;4982362;28;20325;-76
2022/04/28 07:19:51;;;;;;;6.53;5.83;;;;;;;14.22;88.80;100231.31;4980646;28;20671;-76
2022/04/28 07:22:18;;;;;;;6.53;5.87;;;;;;;14.14;90.17;100233.50;4994856;28;20552;-75
2022/04/28 07:24:45;;;;;;;6.53;5.83;;;;;;;14.22;88.45;100227.78;4978689;28;20642;-75
2022/04/28 07:27:13;;;;;;;6.27;5.67;;;;;;;14.41;93.78;100232.94;4994669;28;20199;-76
2022/04/28 07:29:42;;;;;;;6.87;6.27;;;;;;;14.61;87.50;100224.53;4982513;28;20650;-77
2022/04/28 07:32:12;;;;;;;7.70;6.30;;;;;;;14.45;86.32;100231.44;4960001;28;20234;-76
2022/04/28 07:35:17;;;;;;;6.60;5.70;;;;;;;14.50;85.71;100238.81;4960041;28;20211;-76
2022/04/28 07:38:02;;;;;;;6.27;5.50;;;;;;;14.68;92.08;100235.22;4978788;28;20492;-77
2022/04/28 07:40:29;;;;;;;7.50;5.80;;;;;;;14.80;94.72;100238.75;4975132;28;20255;-77
2022/04/28 07:42:59;;;;;;;6.30;5.70;;;;;;;14.77;84.36;100240.06;4990697;28;20206;-77
2022/04/28 07:45:26;;;;;;;6.10;5.60;;;;;;;14.72;83.33;100242.63;4960146;28;20196;-76
2022/04/28 07:47:54;;;;;;;7.33;6.03;;;;;;;14.91;80.93;100238.78;4992218;28;20212;-77
2022/04/28 07:50:23;;;;;;;6.83;6.07;;;;;;;14.92;82.85;100245.00;4992462;28;20247;-77
2022/04/28 07:52:53;;;;;;;5.83;5.33;;;;;;;14.62;82.74;100244.22;4976350;28;20228;-76
2022/04/28 07:55:21;;;;;;;6.30;5.70;;;;;;;14.69;84.74;100248.50;4993063;28;20216;-77
2022/04/28 07:57:51;;;;;;;7.00;5.73;;;;;;;14.90;88.21;100247.94;4945171;28;20220;-76
2022/04/28 08:00:27;;;;;;;6.93;6.07;;;;;;;15.18;82.61;100251.81;4992735;28;20189;-80
2022/04/28 08:02:55;;;;;;;6.97;6.30;;;;;;;15.24;75.69;100238.22;4980806;28;20294;-76
2022/04/28 08:05:32;;;;;;;9.83;7.93;;;;;;;15.31;78.97;100262.38;4995931;28;20193;-77
2022/04/28 08:08:01;;;;;;;7.57;6.83;;;;;;;15.23;75.45;100249.25;5011818;28;20222;-76
2022/04/28 08:10:27;;;;;;;7.10;6.40;;;;;;;15.10;77.85;100252.16;4995373;28;20273;-77
2022/04/28 08:12:54;;;;;;;7.33;6.60;;;;;;;15.30;76.79;100252.66;4978564;28;20310;-78
2022/04/28 08:15:40;;;;;;;7.03;5.80;;;;;;;15.38;75.98;100257.69;5012680;28;20260;-78
2022/04/28 08:18:08;;;;;;;7.17;6.57;;;;;;;15.11;75.40;100256.53;4995524;28;20192;-77
2022/04/28 08:20:38;;;;;;;9.40;8.50;;;;;;;15.23;76.46;100246.53;4994663;28;20202;-77
2022/04/28 08:23:05;;;;;;;7.90;7.20;;;;;;;15.13;72.39;100254.41;5011425;28;20225;-77
2022/04/28 08:25:32;;;;;;;7.17;6.47;;;;;;;15.51;75.43;100260.19;4993515;28;20496;-77
2022/04/28 08:27:59;;;;;;;8.17;7.37;;;;;;;15.63;74.94;100260.19;4994578;28;20193;-76
2022/04/28 08:30:26;;;;;;;7.77;6.60;;;;;;;15.80;73.09;100256.50;4972301;28;20537;-78
2022/04/28 08:32:55;;;;;;;7.10;6.40;;;;;;;15.99;72.58;100238.22;4976131;28;20196;-77
2022/04/28 08:35:22;;;;;;;8.47;7.77;;;;;;;16.07;67.19;100255.94;4968016;28;20202;-75
2022/04/28 08:37:49;;;;;;;7.40;6.70;;;;;;;16.24;69.81;100254.09;4998298;28;20269;-76
2022/04/28 08:40:16;;;;;;;8.13;7.07;;;;;;;16.35;66.92;100255.13;5014937;28;20207;-77
2022/04/28 08:42:44;;;;;;;7.83;7.03;;;;;;;16.30;63.07;100258.56;5014682;28;20541;-78
2022/04/28 08:45:21;;;;;;;11.20;10.10;;;;;;;16.41;64.81;100257.69;4983425;28;20279;-77
2022/04/28 08:48:20;;;;;;;9.83;8.23;;;;;;;16.44;58.74;100259.06;4996704;28;20285;-77
2022/04/28 08:50:47;;;;;;;8.77;7.97;;;;;;;16.44;60.25;100254.50;4996454;28;20302;-75
2022/04/28 08:53:14;;;;;;;7.80;7.07;;;;;;;16.74;60.83;100254.25;4962840;28;20488;-76
2022/04/28 08:55:42;;;;;;;7.83;7.03;;;;;;;16.77;56.53;100250.22;4996320;28;20277;-78
2022/04/28 08:58:10;;;;;;;7.87;7.17;;;;;;;17.09;54.96;100256.72;4979313;28;20285;-76
2022/04/28 09:00:45;;;;;;;8.90;7.70;;;;;;;17.24;54.83;100253.41;4978972;28;20516;-76
2022/04/28 09:03:31;;;;;;;7.83;7.03;;;;;;;17.42;54.83;100259.38;4984083;28;20778;-77
2022/04/28 09:06:40;;;;;;;7.67;6.97;;;;;;;17.16;53.46;100258.19;4995464;28;20258;-75
2022/04/28 09:09:30;;;;;;;8.70;7.23;;;;;;;17.33;53.06;100260.88;4967906;28;20521;-76
2022/04/28 09:12:20;;;;;;;18.43;13.33;;;;;;;17.53;51.62;100255.75;4981743;28;20182;-77
2022/04/28 09:15:13;;;;;;;35.43;22.67;;;;;;;17.46;52.17;100251.56;5001690;28;20548;-76
2022/04/28 09:17:46;;;;;;;10.20;9.20;;;;;;;17.08;52.29;100258.59;4967471;28;20209;-77
2022/04/28 09:20:21;;;;;;;8.00;7.20;;;;;;;17.23;49.77;100249.06;4978327;28;20184;-76
2022/04/28 09:22:52;;;;;;;8.67;7.57;;;;;;;17.06;48.76;100251.81;4977357;28;20239;-78
2022/04/28 09:25:24;;;;;;;8.83;8.03;;;;;;;17.30;51.47;100255.97;4978246;28;20214;-77
2022/04/28 09:27:51;;;;;;;7.90;7.10;;;;;;;17.44;50.17;100259.16;4978268;28;20477;-78
2022/04/28 09:30:22;;;;;;;7.57;6.87;;;;;;;17.78;49.04;100249.88;4978659;28;20216;-76
2022/04/28 09:33:11;;;;;;;7.77;7.00;;;;;;;17.92;47.21;100256.56;4994155;28;20206;-77
2022/04/28 09:36:08;;;;;;;8.27;7.10;;;;;;;18.03;46.84;100254.78;4963545;28;20275;-77
2022/04/28 09:38:53;;;;;;;7.70;6.90;;;;;;;18.45;47.20;100255.00;4979903;28;20188;-75
2022/04/28 09:44:13;;;;;;;7.00;6.40;;;;;;;18.10;45.26;100255.44;4993333;28;20195;-77
2022/04/28 09:46:50;;;;;;;7.50;6.90;;;;;;;17.94;46.53;100256.31;4996817;28;20236;-76
2022/04/28 09:49:21;;;;;;;7.73;7.03;;;;;;;17.89;46.70;100258.97;4981361;28;20198;-75
2022/04/28 09:52:13;;;;;;;7.80;6.87;;;;;;;18.16;46.08;100250.88;5000644;28;20210;-79
2022/04/28 09:55:07;;;;;;;6.20;5.67;;;;;;;18.21;46.45;100253.63;5000408;28;20219;-77
2022/04/28 09:57:54;;;;;;;6.63;6.03;;;;;;;18.19;47.40;100251.19;5013053;28;20627;-76
2022/04/28 10:00:21;;;;;;;6.63;6.00;;;;;;;18.37;47.41;100252.75;5012315;28;20390;-76
2022/04/28 10:02:55;;;;;;;7.50;6.00;;;;;;;18.10;46.13;100251.91;5008949;28;20305;-78
2022/04/28 10:05:26;;;;;;;8.23;6.50;;;;;;;17.94;43.93;100259.03;4961441;28;20199;-79
2022/04/28 10:08:25;;;;;;;7.00;6.40;;;;;;;17.67;44.96;100250.00;4995147;28;20497;-77
2022/04/28 10:10:57;;;;;;;7.03;6.33;;;;;;;18.04;45.45;100257.25;4977185;28;20200;-76
2022/04/28 10:13:25;;;;;;;6.87;6.17;;;;;;;18.25;43.05;100249.34;4985313;28;20214;-78
2022/04/28 10:16:01;;;;;;;6.67;6.07;;;;;;;18.16;43.32;100253.56;4981179;28;20188;-76
2022/04/28 10:18:33;;;;;;;6.27;5.70;;;;;;;18.51;44.07;100253.16;5011759;28;20214;-76
2022/04/28 10:21:03;;;;;;;6.70;6.00;;;;;;;19.06;43.95;100240.09;4976154;28;20297;-79
2022/04/28 10:32:57;;;;;;;6.73;6.23;;;;;;;20.18;39.33;100238.78;4978307;28;20577;-77
2022/04/28 10:35:46;;;;;;;7.13;6.43;;;;;;;19.81;41.29;100235.41;4991864;28;20187;-78
2022/04/28 10:38:14;;;;;;;7.47;6.23;;;;;;;19.56;42.00;100231.47;4992771;28;20572;-76
2022/04/28 10:40:53;;;;;;;7.13;6.53;;;;;;;19.19;42.10;100225.22;4991838;28;20277;-78
2022/04/28 10:43:25;;;;;;;7.40;6.67;;;;;;;19.12;41.45;100228.19;4992603;28;20208;-76
2022/04/28 10:45:55;;;;;;;7.40;6.70;;;;;;;18.93;41.34;100229.69;4975848;28;20195;-77
2022/04/28 10:48:29;;;;;;;7.07;6.13;;;;;;;18.99;42.73;100233.25;4993683;28;20183;-76
2022/04/28 10:51:25;;;;;;;8.77;6.60;;;;;;;18.85;42.72;100232.84;4976017;28;20277;-76
2022/04/28 10:54:16;;;;;;;7.07;6.33;;;;;;;18.78;44.23;100241.22;4977155;28;20268;-76
2022/04/28 10:56:53;;;;;;;7.30;6.20;;;;;;;18.85;43.45;100241.81;4991018;28;20569;-76
2022/04/28 10:59:29;;;;;;;7.20;6.57;;;;;;;18.95;43.47;100241.09;4975565;28;20290;-77
2022/04/28 11:01:57;;;;;;;7.37;6.70;;;;;;;19.22;42.41;100241.03;4974781;28;20291;-76
2022/04/28 11:04:25;;;;;;;7.03;6.33;;;;;;;19.69;40.61;100235.63;4991742;28;20195;-78
2022/04/28 11:06:57;;;;;;;6.70;6.10;;;;;;;20.09;40.10;100235.78;5011346;28;20184;-76
2022/04/28 11:09:35;;;;;;;6.97;6.37;;;;;;;19.79;38.52;100241.91;4994546;28;20574;-78
2022/04/28 11:12:11;;;;;;;7.03;6.40;;;;;;;19.84;39.66;100230.25;4994460;28;20195;-80
2022/04/28 11:14:43;;;;;;;6.87;6.17;;;;;;;19.95;38.27;100228.38;5010752;28;20290;-76
2022/04/28 11:17:11;;;;;;;6.10;5.40;;;;;;;19.99;38.31;100232.19;5011606;28;20191;-75
2022/04/28 11:19:38;;;;;;;5.77;5.27;;;;;;;18.98;38.03;100226.19;4978449;28;20195;-77
2022/04/28 11:22:06;;;;;;;6.67;5.50;;;;;;;19.22;37.44;100224.72;5012770;28;20195;-76
2022/04/28 11:24:33;;;;;;;6.17;5.30;;;;;;;19.52;38.19;100229.53;5012835;28;20529;-76
2022/04/28 11:27:15;;;;;;;6.30;5.80;;;;;;;19.64;38.53;100233.69;5011500;28;20219;-76
2022/04/28 11:29:56;;;;;;;5.93;5.43;;;;;;;19.62;37.46;100233.13;5010564;28;20199;-78
2022/04/28 11:32:23;;;;;;;5.50;5.00;;;;;;;19.58;38.34;100228.50;4978186;28;20214;-75
2022/04/28 11:34:52;;;;;;;5.77;5.13;;;;;;;19.41;37.68;100231.34;4994165;28;20188;-77
2022/04/28 11:37:23;;;;;;;5.70;5.10;;;;;;;19.83;36.15;100233.25;4977938;28;20233;-77
2022/04/28 11:39:52;;;;;;;5.83;5.10;;;;;;;20.28;35.16;100230.66;4978101;28;20211;-77
2022/04/28 11:42:34;;;;;;;7.17;5.30;;;;;;;20.37;36.05;100226.34;5011703;28;20567;-77
2022/04/28 11:45:01;;;;;;;7.37;5.43;;;;;;;19.91;35.60;100225.38;5011370;28;20219;-76
2022/04/28 11:47:30;;;;;;;6.73;5.20;;;;;;;19.24;36.09;100228.81;5011415;28;20186;-77
2022/04/28 11:49:58;;;;;;;6.13;5.57;;;;;;;18.76;38.00;100228.97;5012527;28;20183;-76
2022/04/28 11:52:29;;;;;;;5.20;4.70;;;;;;;18.76;38.68;100237.94;4995461;28;20211;-76
2022/04/28 11:55:11;;;;;;;5.37;4.87;;;;;;;18.79;37.21;100221.16;5011489;28;20171;-75
2022/04/28 11:57:39;;;;;;;5.87;5.27;;;;;;;18.94;37.45;100227.78;4994999;28;20179;-78
2022/04/28 12:00:07;;;;;;;5.33;4.60;;;;;;;19.04;34.68;100230.56;5011882;28;20191;-77
2022/04/28 12:02:38;;;;;;;5.57;4.20;;;;;;;19.03;35.98;100231.66;4978584;28;20610;-76
2022/04/28 12:05:19;;;;;;;4.33;3.97;;;;;;;19.06;34.02;100229.22;4976847;28;20184;-79
2022/04/28 12:07:52;;;;;;;4.33;3.93;;;;;;;19.03;34.09;100218.91;4993340;28;20175;-77
2022/04/28 12:16:08;;;;;;;5.30;3.77;;;;;;;20.08;34.09;100208.84;5016472;28;20203;-77
2022/04/28 12:21:23;;;;;;;4.00;3.70;;;;;;;20.88;28.19;100208.16;5000335;28;20252;-76
2022/04/28 12:23:52;;;;;;;4.93;3.50;;;;;;;20.95;28.48;100210.63;5014639;28;20225;-78
2022/04/28 12:26:26;;;;;;;4.13;3.37;;;;;;;20.52;28.96;100209.25;5015250;28;20180;-79
2022/04/28 12:28:54;;;;;;;3.73;3.20;;;;;;;20.84;29.56;100208.97;4998202;28;20266;-78